Airport Name : Mikkeli

Other Name : Mikkeli

ICAO : EFMI

IATA : MIK

FAA :

Latitude : 61.6866

Longitude : 27.201794

Country : Finland

Local Date and Time : 29 Oct 2020 15:49

 

TAF (Terminal Aerodrome Forecast)

 

METAR (METeorological Aerodrome Report)

EFMI 291320Z AUTO 17006KT 130V220 9999 FEW021 BKN039 10/07 Q1008

EFMI 291250Z AUTO 18005KT 120V240 9999 BKN019 10/07 Q1008

EFMI 291220Z AUTO 17004KT 140V230 9999 FEW017 BKN041 10/07 Q1008

EFMI 291150Z AUTO 20005KT 150V240 9999 OVC019 10/07 Q1008

EFMI 291120Z AUTO 18004KT 130V230 9999 BKN017 10/07 Q1008

EFMI 291050Z AUTO 19005KT 140V230 9999 OVC032 10/07 Q1008

EFMI 291020Z AUTO 20006KT 140V250 9999 OVC019 09/07 Q1008

EFMI 290950Z AUTO 21005KT 130V250 9999 OVC015 09/07 Q1008

To Charter a Jet Click here.